createdAt,value
2023-01-30T00:02:15.271Z,-23.1
2023-01-30T00:07:34.215Z,-23.5
2023-01-30T00:12:53.254Z,-24.4
2023-01-30T00:18:12.198Z,-24
2023-01-30T00:23:31.415Z,-23.4
2023-01-30T00:28:51.132Z,-25.9
2023-01-30T00:34:10.199Z,-24.5
2023-01-30T00:39:29.063Z,-23.1
2023-01-30T00:44:48.706Z,-24
2023-01-30T00:55:27.121Z,-24.3
2023-01-30T01:00:46.719Z,-23.9
2023-01-30T01:11:24.968Z,-23.8
2023-01-30T01:16:44.215Z,-24.2
2023-01-30T01:27:23.134Z,-24.3
2023-01-30T01:32:42.771Z,-23.8
2023-01-30T01:38:02.031Z,-25.4
2023-01-30T01:43:21.569Z,-24.4
2023-01-30T01:54:00.228Z,-24.2
2023-01-30T01:59:19.491Z,-24.6
2023-01-30T02:09:58.416Z,-24.2
2023-01-30T02:15:17.921Z,-24.3
2023-01-30T02:20:36.844Z,-24.5
2023-01-30T02:25:56.630Z,-23.6
2023-01-30T02:36:33.850Z,-24.2
2023-01-30T02:41:53.027Z,-24.1
2023-01-30T02:52:32.955Z,-24.1
2023-01-30T02:57:52.230Z,-24.3
2023-01-30T03:03:11.287Z,-24.8
2023-01-30T03:08:30.118Z,-24.3
2023-01-30T03:13:49.809Z,-24.1
2023-01-30T03:19:09.220Z,-24.2
2023-01-30T03:24:54.929Z,-24.5
2023-01-30T03:30:14.611Z,-24.3
2023-01-30T03:35:34.050Z,-24
2023-01-30T03:40:53.078Z,-23.9
2023-01-30T03:46:12.605Z,-24.1
2023-01-30T03:51:32.024Z,-24.5
2023-01-30T03:56:50.876Z,-24.6
2023-01-30T04:03:25.096Z,-23.8
2023-01-30T04:07:30.567Z,-24.4
2023-01-30T04:12:49.179Z,-24.4
2023-01-30T04:18:08.748Z,-24.2
2023-01-30T04:23:28.027Z,-24.3
2023-01-30T04:34:06.724Z,-24.1
2023-01-30T04:39:26.233Z,-24.3
2023-01-30T04:50:04.291Z,-24.1
2023-01-30T04:55:23.923Z,-24
2023-01-30T05:01:58.083Z,-24.6
2023-01-30T05:06:04.087Z,-24.5
2023-01-30T05:11:23.922Z,-24.8
2023-01-30T05:16:43.073Z,-24.7
2023-01-30T05:27:22.438Z,-24.7
2023-01-30T05:32:41.844Z,-24
2023-01-30T05:38:00.965Z,-24.5
2023-01-30T05:43:20.412Z,-24.3
2023-01-30T05:53:59.985Z,-24.6
2023-01-30T05:59:19.625Z,-24.1
2023-01-30T06:09:58.664Z,-24.2
2023-01-30T06:15:18.011Z,-23.5
2023-01-30T06:25:56.293Z,-24
2023-01-30T06:36:35.197Z,-24.5
2023-01-30T06:41:54.905Z,-24
2023-01-30T06:47:14.574Z,-24.1
2023-01-30T06:52:33.362Z,-24.1
2023-01-30T06:57:52.541Z,-25
2023-01-30T07:08:30.670Z,-24.4
2023-01-30T07:19:08.993Z,-22.7
2023-01-30T07:24:28.467Z,-20.9
2023-01-30T07:29:48.084Z,-7.2
2023-01-30T07:35:06.909Z,3.7
2023-01-30T07:40:26.290Z,-1.8
2023-01-30T07:51:04.018Z,-17.1
2023-01-30T07:56:23.770Z,-14.1
2023-01-30T08:01:43.311Z,-18.4
2023-01-30T08:07:02.382Z,-17.2
2023-01-30T08:17:41.229Z,-16.9
2023-01-30T08:23:00.818Z,-17.9
2023-01-30T08:33:39.736Z,-19.4
2023-01-30T08:38:59.391Z,-17.2
2023-01-30T08:44:18.878Z,-16.2
2023-01-30T08:49:37.966Z,-16.7
2023-01-30T08:54:57.349Z,-17
2023-01-30T09:00:17.368Z,-15.7
2023-01-30T09:05:36.217Z,-11.8
2023-01-30T09:16:14.403Z,-2.7
2023-01-30T09:21:33.709Z,4.3
2023-01-30T09:26:52.105Z,2
2023-01-30T09:32:11.631Z,-3.7
2023-01-30T09:37:31.265Z,-2.5
2023-01-30T09:42:50.153Z,-7.4
2023-01-30T09:48:10.285Z,6.1
2023-01-30T09:58:48.905Z,-2.2
2023-01-30T10:04:08.488Z,-2.8
2023-01-30T10:09:27.779Z,18.79
2023-01-30T10:14:47.263Z,22.3
2023-01-30T10:20:06.844Z,28.3
2023-01-30T10:25:26.252Z,23
2023-01-30T10:30:45.605Z,27.1
2023-01-30T10:41:24.145Z,67
2023-01-30T10:46:43.293Z,56.1
2023-01-30T10:52:02.125Z,43.6
2023-01-30T10:57:21.570Z,89.4
2023-01-30T11:07:59.861Z,-14.46
2023-01-30T11:13:19.670Z,62.1
2023-01-30T11:19:53.787Z,59.4
2023-01-30T11:29:18.303Z,5.5
2023-01-30T11:34:36.637Z,18
2023-01-30T11:39:55.574Z,100.4
2023-01-30T11:45:17.968Z,19.5
2023-01-30T11:50:36.460Z,-4.8
2023-01-30T12:01:13.425Z,6.6
2023-01-30T12:06:32.604Z,9.8
2023-01-30T12:17:11.768Z,5.4
2023-01-30T12:22:31.095Z,1.6
2023-01-30T12:27:50.394Z,0.4
2023-01-30T12:33:09.773Z,21.7
2023-01-30T12:43:48.272Z,12
2023-01-30T12:49:11.444Z,-3.2
2023-01-30T12:59:45.516Z,-12.7
2023-01-30T13:05:05.039Z,-19.1
2023-01-30T13:10:23.826Z,-18.5
2023-01-30T13:15:42.543Z,-17.6
2023-01-30T13:21:01.545Z,28.3
2023-01-30T13:26:20.602Z,85.1
2023-01-30T13:31:39.526Z,29.9
2023-01-30T13:42:18.734Z,32.2
2023-01-30T13:47:37.575Z,39.09
2023-01-30T13:52:56.901Z,42
2023-01-30T13:58:16.112Z,52.1
2023-01-30T14:08:54.124Z,13.9
2023-01-30T14:14:13.478Z,9.1
2023-01-30T14:26:07.397Z,2.3
2023-01-30T14:30:12.671Z,-10.2
2023-01-30T14:35:31.898Z,-5.5
2023-01-30T14:40:51.016Z,-19.29
2023-01-30T14:46:10.130Z,-20.4
2023-01-30T14:51:29.299Z,-13.6
2023-01-30T14:56:47.560Z,-3.8
2023-01-30T15:07:25.342Z,-2.8
2023-01-30T15:12:44.809Z,10
2023-01-30T15:18:08.064Z,-10.3
2023-01-30T15:23:23.628Z,-16.6
2023-01-30T15:28:42.972Z,-13.8
2023-01-30T15:34:02.370Z,18.79
2023-01-30T15:39:21.705Z,-11.3
2023-01-30T15:50:00.483Z,-23.6
2023-01-30T15:55:20.071Z,-26.6
2023-01-30T16:00:39.747Z,-21.7
2023-01-30T16:05:59.247Z,-25.4
2023-01-30T16:11:18.301Z,-24.8
2023-01-30T16:16:37.654Z,-25
2023-01-30T16:21:57.309Z,-24.2
2023-01-30T16:32:35.240Z,-28.1
2023-01-30T16:37:54.401Z,-24.5
2023-01-30T16:48:32.486Z,-24.1
2023-01-30T16:59:11.137Z,-24.5
2023-01-30T17:04:30.224Z,-24.3
2023-01-30T17:15:08.632Z,-24.4
2023-01-30T17:20:28.231Z,-24.1
2023-01-30T17:31:07.076Z,-24.2
2023-01-30T17:36:27.245Z,-24.5
2023-01-30T17:43:01.344Z,-24.5
2023-01-30T17:47:06.402Z,-24.2
2023-01-30T17:52:25.697Z,-25.8
2023-01-30T17:57:44.695Z,-24.3
2023-01-30T18:03:04.242Z,-24
2023-01-30T18:13:42.766Z,-24.1
2023-01-30T18:19:02.399Z,-24.2
2023-01-30T18:24:22.232Z,-24.6
2023-01-30T18:29:41.256Z,-24.4
2023-01-30T18:40:20.476Z,-24.5
2023-01-30T18:50:58.953Z,-24.8
2023-01-30T18:56:18.491Z,-24.4
2023-01-30T19:01:36.820Z,-29.1
2023-01-30T19:06:56.279Z,-24.2
2023-01-30T19:17:35.014Z,-24.3
2023-01-30T19:22:54.057Z,-25
2023-01-30T19:33:32.411Z,-24.4
2023-01-30T19:38:52.902Z,-24.4
2023-01-30T19:49:30.681Z,-24.4
2023-01-30T19:54:50.351Z,-24
2023-01-30T20:00:10.274Z,-24.3
2023-01-30T20:05:28.636Z,-24.3
2023-01-30T20:16:07.331Z,-24.9
2023-01-30T20:21:26.448Z,-24.6
2023-01-30T20:32:04.957Z,-24.5
2023-01-30T20:37:23.760Z,-24.3
2023-01-30T20:42:42.834Z,-25
2023-01-30T20:48:03.137Z,-24.3
2023-01-30T20:58:39.890Z,-24.4
2023-01-30T21:03:59.273Z,-24.9
2023-01-30T21:20:23.981Z,-24.5
2023-01-30T21:31:02.217Z,-24.1
2023-01-30T21:36:21.430Z,-24.2
2023-01-30T21:46:59.945Z,-24.3
2023-01-30T21:52:19.665Z,-24.6
2023-01-30T21:57:39.197Z,-25
2023-01-30T22:02:58.314Z,-24.2
2023-01-30T22:13:37.516Z,-24.3
2023-01-30T22:18:55.986Z,-24.2
2023-01-30T22:29:35.064Z,-24.5
2023-01-30T22:34:54.635Z,-24.7
2023-01-30T22:40:13.799Z,-24.1
2023-01-30T22:45:32.966Z,-24.2
2023-01-30T22:50:52.022Z,-24.6
2023-01-30T22:56:11.568Z,-24.1
2023-01-30T23:01:30.641Z,-24.7
2023-01-30T23:12:10.217Z,-24.6
2023-01-30T23:17:29.564Z,-24.4
2023-01-30T23:22:49.144Z,-24.1
2023-01-30T23:28:07.769Z,-24.2
2023-01-30T23:38:46.373Z,-24.1
2023-01-30T23:44:05.804Z,-24.6
2023-01-30T23:54:43.798Z,-24
